createdAt,value
2022-10-27T00:01:41.460Z,84.00
2022-10-27T00:06:44.047Z,84.40
2022-10-27T00:11:49.537Z,84.50
2022-10-27T00:16:55.343Z,85.50
2022-10-27T00:21:57.667Z,85.00
2022-10-27T00:27:00.145Z,84.70
2022-10-27T00:32:04.701Z,85.10
2022-10-27T00:37:07.101Z,85.40
2022-10-27T00:42:12.155Z,85.40
2022-10-27T00:47:22.651Z,86.40
2022-10-27T00:52:31.303Z,86.00
2022-10-27T00:57:35.597Z,85.80
2022-10-27T01:02:39.823Z,85.70
2022-10-27T01:07:44.080Z,85.80
2022-10-27T01:12:48.106Z,86.00
2022-10-27T01:17:59.148Z,86.20
2022-10-27T01:23:08.470Z,86.60
2022-10-27T01:28:42.528Z,86.70
2022-10-27T01:33:50.493Z,88.00
2022-10-27T01:38:58.540Z,87.00
2022-10-27T01:44:08.732Z,87.20
2022-10-27T01:49:12.827Z,87.40
2022-10-27T01:54:15.813Z,87.30
2022-10-27T01:59:38.868Z,87.50
2022-10-27T02:04:50.870Z,88.10
2022-10-27T02:09:57.568Z,87.70
2022-10-27T02:15:02.060Z,87.40
2022-10-27T02:20:13.422Z,87.30
2022-10-27T02:25:16.719Z,87.50
2022-10-27T02:30:19.404Z,87.20
2022-10-27T02:35:23.681Z,87.20
2022-10-27T02:40:26.347Z,87.60
2022-10-27T02:45:29.006Z,87.70
2022-10-27T02:50:33.166Z,88.00
2022-10-27T02:55:35.641Z,88.20
2022-10-27T03:00:38.005Z,88.10
2022-10-27T03:05:44.419Z,88.40
2022-10-27T03:10:49.474Z,88.60
2022-10-27T03:15:52.115Z,88.40
2022-10-27T03:20:56.284Z,88.50
2022-10-27T03:26:00.205Z,88.40
2022-10-27T03:31:02.719Z,88.40
2022-10-27T03:36:07.364Z,88.30
2022-10-27T03:41:09.752Z,88.50
2022-10-27T03:46:12.376Z,88.30
2022-10-27T03:51:16.420Z,88.20
2022-10-27T03:56:18.811Z,88.30
2022-10-27T04:01:21.387Z,88.20
2022-10-27T04:06:26.002Z,88.40
2022-10-27T04:11:28.400Z,88.70
2022-10-27T04:16:30.973Z,88.70
2022-10-27T04:21:37.980Z,88.80
2022-10-27T04:26:40.902Z,89.20
2022-10-27T04:31:43.584Z,88.90
2022-10-27T04:36:47.587Z,88.80
2022-10-27T04:41:50.033Z,88.90
2022-10-27T04:46:52.788Z,89.00
2022-10-27T04:51:57.205Z,88.90
2022-10-27T04:57:00.008Z,89.30
2022-10-27T05:02:02.933Z,89.30
2022-10-27T05:07:07.401Z,89.40
2022-10-27T05:12:09.917Z,89.60
2022-10-27T05:17:14.538Z,89.60
2022-10-27T05:22:22.917Z,89.60
2022-10-27T05:27:25.572Z,89.60
2022-10-27T05:32:28.562Z,89.60
2022-10-27T05:37:32.921Z,89.70
2022-10-27T05:42:35.792Z,89.70
2022-10-27T05:47:38.740Z,89.50
2022-10-27T05:52:46.566Z,89.70
2022-10-27T05:57:56.554Z,90.10
2022-10-27T06:03:01.040Z,90.20
2022-10-27T06:08:07.897Z,90.00
2022-10-27T06:13:12.700Z,90.10
2022-10-27T06:18:15.636Z,90.00
2022-10-27T06:23:20.686Z,90.00
2022-10-27T06:28:23.350Z,90.10
2022-10-27T06:33:27.296Z,90.00
2022-10-27T06:38:31.310Z,90.00
2022-10-27T06:43:33.789Z,90.00
2022-10-27T06:48:36.345Z,90.00
2022-10-27T06:53:40.318Z,90.10
2022-10-27T06:58:42.911Z,90.10
2022-10-27T07:11:06.202Z,90.70
2022-10-27T07:22:54.977Z,90.10
2022-10-27T07:28:04.883Z,89.30
2022-10-27T07:33:07.474Z,89.00
2022-10-27T07:38:10.396Z,89.00
2022-10-27T07:43:14.758Z,89.40
2022-10-27T07:48:17.726Z,89.20
2022-10-27T07:53:20.179Z,89.10
2022-10-27T07:58:24.173Z,88.80
2022-10-27T08:03:28.003Z,88.90
2022-10-27T08:08:31.072Z,89.10
2022-10-27T08:13:35.403Z,89.80
2022-10-27T08:18:38.073Z,90.10
2022-10-27T08:23:40.525Z,89.90
2022-10-27T08:28:44.567Z,88.70
2022-10-27T08:33:47.232Z,87.60
2022-10-27T08:38:50.217Z,87.00
2022-10-27T08:44:19.346Z,86.40
2022-10-27T08:49:42.349Z,85.90
2022-10-27T08:54:52.835Z,85.70
2022-10-27T09:00:02.364Z,86.00
2022-10-27T09:05:41.153Z,85.10
2022-10-27T09:10:58.313Z,85.10
2022-10-27T09:16:07.494Z,84.50
2022-10-27T09:21:22.091Z,84.80
2022-10-27T09:26:29.802Z,82.80
2022-10-27T09:31:39.699Z,82.10
2022-10-27T09:48:53.504Z,82.70
2022-10-27T09:54:41.413Z,81.60
2022-10-27T10:00:35.203Z,80.60
2022-10-27T10:05:39.645Z,78.20
2022-10-27T10:10:55.250Z,78.20
2022-10-27T10:22:04.243Z,74.10
2022-10-27T10:27:07.496Z,74.50
2022-10-27T10:32:14.470Z,73.50
2022-10-27T10:37:35.203Z,72.50
2022-10-27T10:42:39.319Z,74.30
2022-10-27T10:47:48.261Z,73.40
2022-10-27T10:52:55.743Z,72.70
2022-10-27T10:58:00.519Z,73.30
2022-10-27T11:03:24.538Z,73.60
2022-10-27T11:08:42.492Z,73.60
2022-10-27T11:13:51.640Z,73.60
2022-10-27T11:18:57.281Z,73.90
2022-10-27T11:24:08.611Z,74.20
2022-10-27T11:29:18.742Z,74.10
2022-10-27T11:34:31.073Z,74.20
2022-10-27T11:39:44.601Z,74.00
2022-10-27T11:50:44.351Z,74.10
2022-10-27T11:56:20.359Z,73.30
2022-10-27T12:01:36.134Z,73.20
2022-10-27T12:06:48.263Z,72.70
2022-10-27T12:12:02.170Z,72.60
2022-10-27T12:17:12.028Z,72.40
2022-10-27T12:22:24.533Z,72.00
2022-10-27T12:27:32.579Z,70.80
2022-10-27T12:32:39.997Z,70.70
2022-10-27T12:37:54.115Z,70.00
2022-10-27T12:43:07.105Z,70.40
2022-10-27T12:48:19.073Z,70.60
2022-10-27T12:53:32.157Z,71.20
2022-10-27T12:58:48.792Z,71.00
2022-10-27T13:04:20.718Z,70.70
2022-10-27T13:09:53.070Z,71.20
2022-10-27T13:15:41.431Z,71.90
2022-10-27T13:21:14.872Z,71.80
2022-10-27T13:26:27.265Z,72.10
2022-10-27T13:37:30.607Z,72.60
2022-10-27T13:42:33.820Z,72.60
2022-10-27T13:47:41.169Z,73.10
2022-10-27T13:53:22.534Z,73.30
2022-10-27T13:58:52.958Z,73.60
2022-10-27T14:04:29.889Z,74.00
2022-10-27T14:09:37.324Z,74.10
2022-10-27T14:14:41.010Z,74.20
2022-10-27T14:19:57.564Z,74.30
2022-10-27T14:25:05.436Z,74.40
2022-10-27T14:30:16.678Z,74.20
2022-10-27T14:35:27.226Z,74.10
2022-10-27T14:40:42.005Z,74.10
2022-10-27T14:45:46.338Z,74.20
2022-10-27T14:50:51.513Z,74.50
2022-10-27T14:56:06.729Z,74.60
2022-10-27T15:01:27.319Z,74.80
2022-10-27T15:06:34.577Z,75.00
2022-10-27T15:11:37.301Z,75.10
2022-10-27T15:16:44.566Z,75.30
2022-10-27T15:21:50.081Z,75.50
2022-10-27T15:26:53.792Z,75.80
2022-10-27T15:32:00.223Z,75.90
2022-10-27T15:37:27.112Z,76.20
2022-10-27T15:59:30.201Z,79.60
2022-10-27T16:05:43.406Z,79.80
2022-10-27T16:10:49.351Z,82.20
2022-10-27T16:15:51.632Z,80.70
2022-10-27T16:20:55.254Z,80.40
2022-10-27T16:25:57.557Z,80.80
2022-10-27T16:31:00.193Z,80.50
2022-10-27T16:36:04.023Z,80.50
2022-10-27T16:41:06.522Z,80.30
2022-10-27T16:46:09.189Z,80.10
2022-10-27T16:51:15.639Z,80.00
2022-10-27T16:56:17.838Z,79.90
2022-10-27T17:01:22.202Z,79.60
2022-10-27T17:06:25.983Z,79.50
2022-10-27T17:11:28.195Z,79.30
2022-10-27T17:16:30.369Z,79.40
2022-10-27T17:21:34.050Z,79.30
2022-10-27T17:26:37.050Z,79.20
2022-10-27T17:31:39.385Z,79.00
2022-10-27T17:36:45.173Z,79.00
2022-10-27T17:41:48.440Z,78.90
2022-10-27T17:46:51.048Z,78.80
2022-10-27T17:51:55.654Z,78.80
2022-10-27T17:57:00.858Z,78.80
2022-10-27T18:02:09.524Z,78.70
2022-10-27T18:07:13.530Z,78.70
2022-10-27T18:12:15.744Z,78.70
2022-10-27T18:17:17.922Z,78.80
2022-10-27T18:22:21.519Z,78.80
2022-10-27T18:27:23.707Z,79.00
2022-10-27T18:32:25.978Z,78.90
2022-10-27T18:37:29.694Z,79.90
2022-10-27T18:42:48.187Z,79.20
2022-10-27T18:48:07.516Z,79.50
2022-10-27T18:53:40.770Z,79.60
2022-10-27T18:58:44.023Z,80.00
2022-10-27T19:03:52.504Z,79.80
2022-10-27T19:08:58.004Z,80.90
2022-10-27T19:14:00.239Z,80.20
2022-10-27T19:19:02.782Z,80.20
2022-10-27T19:24:10.143Z,80.30
2022-10-27T19:29:12.123Z,80.60
2022-10-27T19:34:15.750Z,80.40
2022-10-27T19:39:21.196Z,80.50
2022-10-27T19:44:24.204Z,80.80
2022-10-27T19:49:27.678Z,80.80
2022-10-27T19:54:31.320Z,80.90
2022-10-27T19:59:35.504Z,81.00
2022-10-27T20:04:38.566Z,81.10
2022-10-27T20:09:43.124Z,81.20
2022-10-27T20:14:45.392Z,81.40
2022-10-27T20:19:47.784Z,81.40
2022-10-27T20:24:54.900Z,81.70
2022-10-27T20:29:57.733Z,81.70
2022-10-27T20:35:00.168Z,81.70
2022-10-27T20:40:04.213Z,81.80
2022-10-27T20:45:07.215Z,82.00
2022-10-27T20:50:10.265Z,82.20
2022-10-27T20:55:14.086Z,82.30
2022-10-27T21:00:16.744Z,82.50
2022-10-27T21:10:23.627Z,82.20
2022-10-27T21:15:25.821Z,82.20
2022-10-27T21:20:28.056Z,82.20
2022-10-27T21:25:31.761Z,82.20
2022-10-27T21:30:34.436Z,82.20
2022-10-27T21:35:36.629Z,82.20
2022-10-27T21:40:40.248Z,82.20
2022-10-27T21:45:42.417Z,82.10
2022-10-27T21:50:45.814Z,82.00
2022-10-27T21:55:57.197Z,82.00
2022-10-27T22:01:06.171Z,82.00
2022-10-27T22:06:17.382Z,81.80
2022-10-27T22:11:23.713Z,81.60
2022-10-27T22:16:27.915Z,81.60
2022-10-27T22:21:32.588Z,81.50
2022-10-27T22:26:39.135Z,81.70
2022-10-27T22:31:41.258Z,81.90
2022-10-27T22:36:43.530Z,81.80
2022-10-27T22:41:47.414Z,81.70
2022-10-27T22:46:49.535Z,81.80
2022-10-27T22:51:51.750Z,81.80
2022-10-27T22:56:55.329Z,81.80
2022-10-27T23:01:57.522Z,81.90
2022-10-27T23:06:59.731Z,81.90
2022-10-27T23:12:04.033Z,82.10
2022-10-27T23:17:06.166Z,82.30
2022-10-27T23:22:08.316Z,82.40
2022-10-27T23:27:12.239Z,82.50
2022-10-27T23:32:14.397Z,82.70
2022-10-27T23:37:16.501Z,82.80
2022-10-27T23:42:20.051Z,82.80
2022-10-27T23:47:22.293Z,82.80
2022-10-27T23:52:24.450Z,82.90
2022-10-27T23:57:28.122Z,83.00
